Time;durP1;ratioP1;P1;durP2;ratioP2;P2;SDS_P1;SDS_P2;PMS_P1;PMS_P2;Temp;Humidity;BMP_temperature;BMP_pressure;BME280_temperature;BME280_humidity;BME280_pressure;Samples;Min_cycle;Max_cycle;Signal;HPM_P1;HPM_P2
2022/03/14 00:01:24;;;;;;;7.68;3.92;;;7.70;67.60;;;;;;6277144;22;20014;-86
2022/03/14 00:03:53;;;;;;;6.80;3.60;;;7.80;68.10;;;;;;6303657;22;20007;-86
2022/03/14 00:06:19;;;;;;;9.63;3.58;;;7.80;70.00;;;;;;6303664;22;20000;-86
2022/03/14 00:08:45;;;;;;;6.95;3.35;;;7.80;69.20;;;;;;6304625;22;19995;-86
2022/03/14 00:11:15;;;;;;;7.65;3.28;;;7.70;69.10;;;;;;6276655;22;20082;-85
2022/03/14 00:13:46;;;;;;;7.43;3.55;;;7.70;69.80;;;;;;6276481;22;20010;-86
2022/03/14 00:16:23;;;;;;;7.03;3.60;;;7.80;69.60;;;;;;6276772;22;20006;-86
2022/03/14 00:19:09;;;;;;;8.20;3.50;;;7.70;68.70;;;;;;6276138;22;20406;-87
2022/03/14 00:21:38;;;;;;;6.65;3.53;;;7.70;67.90;;;;;;6270568;22;20004;-86
2022/03/14 00:24:06;;;;;;;8.63;4.00;;;7.70;67.40;;;;;;6274671;22;20011;-86
2022/03/14 00:26:32;;;;;;;6.72;3.78;;;7.80;68.40;;;;;;6276488;22;20026;-86
2022/03/14 00:28:58;;;;;;;6.85;3.35;;;7.80;68.90;;;;;;6276786;22;20004;-87
2022/03/14 00:31:24;;;;;;;8.98;3.50;;;7.80;69.10;;;;;;6299952;22;20010;-86
2022/03/14 00:33:50;;;;;;;7.03;3.25;;;7.80;67.80;;;;;;6303337;22;20513;-87
2022/03/14 00:36:16;;;;;;;7.93;3.80;;;7.80;67.60;;;;;;6276476;22;20090;-86
2022/03/14 00:38:42;;;;;;;7.10;3.53;;;7.90;67.20;;;;;;6276822;22;20422;-87
2022/03/14 00:41:08;;;;;;;7.18;3.40;;;7.90;67.60;;;;;;6276321;22;20007;-86
2022/03/14 00:43:35;;;;;;;8.52;3.67;;;7.90;67.10;;;;;;6276492;22;20038;-86
2022/03/14 00:46:01;;;;;;;7.93;2.97;;;7.90;66.70;;;;;;6276378;22;20004;-86
2022/03/14 00:48:27;;;;;;;6.40;3.35;;;8.00;67.00;;;;;;6303545;22;19996;-86
2022/03/14 00:50:53;;;;;;;6.90;3.28;;;8.00;67.50;;;;;;6303788;22;20034;-86
2022/03/14 00:53:20;;;;;;;9.63;4.22;;;8.00;67.40;;;;;;6276036;22;20090;-86
2022/03/14 00:55:46;;;;;;;7.50;3.85;;;8.20;66.80;;;;;;6275912;22;20003;-86
2022/03/14 00:58:12;;;;;;;8.18;3.78;;;8.30;66.50;;;;;;6272852;22;20018;-86
2022/03/14 01:00:38;;;;;;;7.63;3.65;;;8.30;66.90;;;;;;6275175;22;20007;-86
2022/03/14 01:03:04;;;;;;;9.95;3.85;;;8.20;67.60;;;;;;6302229;22;20452;-86
2022/03/14 01:05:29;;;;;;;7.18;3.60;;;8.30;67.50;;;;;;6302540;22;20078;-86
2022/03/14 01:07:55;;;;;;;8.15;3.50;;;8.20;69.10;;;;;;6303854;22;20796;-86
2022/03/14 01:10:23;;;;;;;8.25;3.72;;;8.20;70.20;;;;;;6276382;22;19999;-86
2022/03/14 01:12:49;;;;;;;8.10;3.80;;;8.20;70.70;;;;;;6303721;22;19999;-86
2022/03/14 01:15:15;;;;;;;9.25;4.40;;;8.20;70.50;;;;;;6275772;22;20042;-86
2022/03/14 01:17:40;;;;;;;8.77;4.32;;;8.20;71.30;;;;;;6276435;22;20415;-86
2022/03/14 01:20:09;;;;;;;10.80;4.10;;;8.30;72.00;;;;;;6276653;22;20365;-86
2022/03/14 01:22:35;;;;;;;9.63;4.55;;;8.40;73.50;;;;;;6276167;22;20004;-87
2022/03/14 01:25:02;;;;;;;12.50;4.68;;;8.40;74.60;;;;;;6275209;22;20014;-86
2022/03/14 01:27:27;;;;;;;9.32;5.03;;;8.50;76.40;;;;;;6303940;22;20068;-86
2022/03/14 01:29:53;;;;;;;10.52;5.03;;;8.60;78.40;;;;;;6278098;22;20004;-86
2022/03/14 01:32:21;;;;;;;11.45;5.38;;;8.70;82.70;;;;;;6278018;22;20010;-87
2022/03/14 01:34:47;;;;;;;9.98;4.65;;;8.80;84.10;;;;;;6277352;22;20007;-86
2022/03/14 01:37:12;;;;;;;9.35;5.22;;;8.80;85.00;;;;;;6278053;22;20099;-87
2022/03/14 01:39:38;;;;;;;10.80;4.95;;;8.80;87.80;;;;;;6278233;22;20003;-86
2022/03/14 01:42:04;;;;;;;10.00;4.57;;;8.70;88.20;;;;;;6277794;22;20018;-86
2022/03/14 01:44:30;;;;;;;10.93;4.57;;;8.70;89.10;;;;;;6277710;22;20033;-86
2022/03/14 01:46:57;;;;;;;13.50;5.63;;;8.60;90.00;;;;;;6305219;22;20003;-86
2022/03/14 01:49:23;;;;;;;11.15;6.13;;;8.60;90.80;;;;;;6277782;22;20388;-86
2022/03/14 01:51:51;;;;;;;10.35;5.13;;;8.60;91.70;;;;;;6278048;22;19999;-86
2022/03/14 01:54:16;;;;;;;10.07;5.40;;;8.60;93.20;;;;;;6277755;22;20007;-86
2022/03/14 01:56:43;;;;;;;10.57;5.60;;;8.60;94.00;;;;;;6278618;22;20452;-86
2022/03/14 01:59:09;;;;;;;14.82;5.80;;;8.50;94.40;;;;;;6287108;22;19999;-86
2022/03/14 02:01:35;;;;;;;9.05;4.47;;;8.60;94.50;;;;;;6294859;22;20061;-86
2022/03/14 02:04:02;;;;;;;11.10;5.15;;;8.60;95.00;;;;;;6280289;22;20006;-86
2022/03/14 02:06:28;;;;;;;9.65;4.70;;;8.60;95.00;;;;;;6280276;22;20093;-86
2022/03/14 02:08:54;;;;;;;12.70;5.40;;;8.50;94.10;;;;;;6278155;22;20003;-86
2022/03/14 02:11:20;;;;;;;10.00;5.35;;;8.50;94.30;;;;;;6278736;22;20010;-86
2022/03/14 02:13:46;;;;;;;10.75;5.18;;;8.40;94.40;;;;;;6306652;22;20074;-86
2022/03/14 02:16:11;;;;;;;12.05;5.40;;;8.50;95.00;;;;;;6277844;22;20007;-86
2022/03/14 02:18:37;;;;;;;11.85;5.28;;;8.40;95.00;;;;;;6278617;22;20441;-86
2022/03/14 02:21:04;;;;;;;10.70;5.40;;;8.40;95.00;;;;;;6277580;22;20003;-86
2022/03/14 02:23:29;;;;;;;11.95;5.47;;;8.40;94.90;;;;;;6276997;22;20091;-86
2022/03/14 02:25:55;;;;;;;12.82;5.80;;;8.30;94.80;;;;;;6277249;22;20007;-86
2022/03/14 02:28:22;;;;;;;10.20;5.07;;;8.30;95.60;;;;;;6277767;22;20049;-86
2022/03/14 02:30:52;;;;;;;10.85;5.65;;;8.40;96.10;;;;;;6277259;22;20078;-86
2022/03/14 02:33:19;;;;;;;11.35;4.95;;;8.40;96.10;;;;;;6301009;22;20022;-85
2022/03/14 02:35:45;;;;;;;8.95;4.35;;;8.40;96.70;;;;;;6277571;22;20011;-86
2022/03/14 02:38:16;;;;;;;11.35;4.72;;;8.40;96.80;;;;;;6277799;22;20315;-86
2022/03/14 02:40:48;;;;;;;9.43;4.25;;;8.30;97.70;;;;;;6276879;22;20054;-86
2022/03/14 02:43:15;;;;;;;11.10;4.60;;;8.30;98.20;;;;;;6277059;22;20007;-86
2022/03/14 02:45:43;;;;;;;9.10;4.25;;;8.30;99.00;;;;;;6277522;22;20007;-86
2022/03/14 02:48:09;;;;;;;9.38;4.40;;;8.30;99.40;;;;;;6276978;22;20006;-86
2022/03/14 02:50:38;;;;;;;8.43;4.80;;;8.20;99.60;;;;;;6305043;22;19996;-86
2022/03/14 02:53:04;;;;;;;12.50;5.57;;;8.20;99.90;;;;;;6277580;22;20013;-86
2022/03/14 02:55:30;;;;;;;11.13;5.32;;;8.20;99.90;;;;;;6304533;22;20035;-85
2022/03/14 02:57:58;;;;;;;10.95;4.65;;;8.10;99.90;;;;;;6321610;22;20079;-88
2022/03/14 03:00:24;;;;;;;11.45;4.32;;;8.10;99.90;;;;;;6350664;22;20006;-89
2022/03/14 03:02:51;;;;;;;8.25;4.07;;;8.10;99.90;;;;;;6348113;22;20020;-88
2022/03/14 03:05:17;;;;;;;7.60;4.20;;;8.10;99.90;;;;;;6350251;22;20014;-88
2022/03/14 03:07:48;;;;;;;8.43;3.97;;;8.00;99.90;;;;;;6341040;22;20011;-89
2022/03/14 03:10:20;;;;;;;8.93;4.38;;;7.90;99.90;;;;;;6318820;22;19999;-89
2022/03/14 03:12:47;;;;;;;7.63;3.65;;;7.90;99.90;;;;;;6347901;22;20006;-89
2022/03/14 03:15:15;;;;;;;8.43;4.00;;;7.90;99.90;;;;;;6319990;22;20002;-89
2022/03/14 03:17:42;;;;;;;8.48;3.97;;;7.90;99.90;;;;;;6348769;22;19998;-89
2022/03/14 03:20:09;;;;;;;6.45;3.15;;;7.80;99.90;;;;;;6323030;22;20006;-88
2022/03/14 03:22:38;;;;;;;6.38;2.97;;;7.80;99.90;;;;;;6322081;22;20028;-89
2022/03/14 03:25:05;;;;;;;8.32;3.75;;;7.80;99.90;;;;;;6347082;22;19999;-88
2022/03/14 03:27:33;;;;;;;7.18;3.55;;;7.70;99.90;;;;;;6319969;22;20064;-89
2022/03/14 03:29:59;;;;;;;8.75;3.97;;;7.70;99.90;;;;;;6348631;22;20026;-89
2022/03/14 03:32:25;;;;;;;8.00;3.95;;;7.70;99.90;;;;;;6319793;22;20006;-89
2022/03/14 03:34:52;;;;;;;9.57;4.20;;;7.70;99.90;;;;;;6319924;22;20007;-88
2022/03/14 03:37:17;;;;;;;8.90;4.72;;;7.70;99.90;;;;;;6313425;22;20038;-89
2022/03/14 03:39:44;;;;;;;9.32;4.82;;;7.60;99.90;;;;;;6316454;22;20479;-88
2022/03/14 03:42:10;;;;;;;11.15;4.65;;;7.60;99.90;;;;;;6316874;22;20036;-88
2022/03/14 03:44:36;;;;;;;8.27;4.15;;;7.60;99.90;;;;;;6347473;22;19999;-87
2022/03/14 03:47:05;;;;;;;8.30;3.83;;;7.50;99.90;;;;;;6321065;22;20024;-88
2022/03/14 03:49:33;;;;;;;7.85;3.67;;;7.50;99.90;;;;;;6347706;22;20005;-88
2022/03/14 03:51:58;;;;;;;10.85;4.10;;;7.50;99.90;;;;;;6348523;22;19995;-89
2022/03/14 03:54:25;;;;;;;6.63;3.30;;;7.50;99.90;;;;;;6348035;22;20002;-89
2022/03/14 03:56:50;;;;;;;6.80;3.63;;;7.40;99.90;;;;;;6321469;22;19999;-89
2022/03/14 03:59:17;;;;;;;7.75;3.05;;;7.50;99.90;;;;;;6320950;22;20102;-88
2022/03/14 04:01:43;;;;;;;5.70;1.92;;;7.50;99.90;;;;;;6321700;22;20471;-89
2022/03/14 04:04:11;;;;;;;4.32;1.75;;;7.40;99.90;;;;;;6321199;22;19998;-89
2022/03/14 04:06:41;;;;;;;3.10;1.40;;;7.40;99.90;;;;;;6320451;22;20007;-88
2022/03/14 04:09:10;;;;;;;3.88;1.60;;;7.50;99.90;;;;;;6321344;22;20006;-88
2022/03/14 04:11:36;;;;;;;3.00;1.23;;;7.30;99.90;;;;;;6320727;22;20003;-88
2022/03/14 04:14:03;;;;;;;3.20;1.10;;;7.30;99.90;;;;;;6319386;22;20007;-89
2022/03/14 04:16:29;;;;;;;1.80;0.90;;;7.30;99.90;;;;;;6319810;22;20094;-88
2022/03/14 04:18:55;;;;;;;2.50;0.82;;;7.30;99.90;;;;;;6319759;22;20010;-90
2022/03/14 04:21:21;;;;;;;2.65;0.90;;;7.30;99.90;;;;;;6347323;22;20002;-89
2022/03/14 04:23:48;;;;;;;2.50;0.82;;;7.30;99.90;;;;;;6346997;22;20179;-89
2022/03/14 04:26:14;;;;;;;1.13;0.50;;;7.30;99.90;;;;;;6320503;22;20003;-89
2022/03/14 04:28:41;;;;;;;1.95;0.60;;;7.20;99.90;;;;;;6320670;22;20010;-89
2022/03/14 04:31:09;;;;;;;1.73;0.57;;;7.20;99.90;;;;;;6318779;22;20013;-88
2022/03/14 04:33:36;;;;;;;2.95;0.73;;;7.30;99.90;;;;;;6319132;22;20005;-87
2022/03/14 04:36:02;;;;;;;1.30;0.40;;;7.10;99.90;;;;;;6320026;22;20064;-89
2022/03/14 04:38:29;;;;;;;1.52;0.57;;;7.10;99.90;;;;;;6344975;22;20007;-89
2022/03/14 04:40:55;;;;;;;0.80;0.30;;;7.10;99.90;;;;;;6321030;22;20002;-88
2022/03/14 04:43:22;;;;;;;1.40;0.45;;;7.10;99.90;;;;;;6318948;22;20415;-88
2022/03/14 04:45:49;;;;;;;1.05;0.30;;;7.10;99.90;;;;;;6349106;22;20009;-87
2022/03/14 04:48:15;;;;;;;0.30;0.10;;;7.20;99.90;;;;;;6349946;22;19999;-89
2022/03/14 04:50:42;;;;;;;0.95;0.40;;;7.10;99.90;;;;;;6349695;22;20001;-88
2022/03/14 04:53:09;;;;;;;0.95;0.17;;;7.10;99.90;;;;;;6321217;22;19998;-89
2022/03/14 04:55:36;;;;;;;1.75;0.30;;;7.10;99.90;;;;;;6347707;22;19999;-89
2022/03/14 04:58:03;;;;;;;0.68;0.30;;;7.10;99.90;;;;;;6320150;22;20074;-89
2022/03/14 05:00:29;;;;;;;0.43;0.30;;;7.10;99.90;;;;;;6320899;22;20054;-89
2022/03/14 05:03:03;;;;;;;0.80;0.30;;;7.10;99.90;;;;;;6320426;22;20007;-89
2022/03/14 05:05:31;;;;;;;0.90;0.40;;;7.10;99.90;;;;;;6321073;22;20034;-89
2022/03/14 05:07:57;;;;;;;0.28;0.10;;;7.10;99.90;;;;;;6321260;22;20004;-89
2022/03/14 05:10:24;;;;;;;1.60;0.30;;;7.10;99.90;;;;;;6321433;22;20003;-89
2022/03/14 05:12:50;;;;;;;0.93;0.35;;;7.10;99.90;;;;;;6320665;22;19999;-88
2022/03/14 05:15:16;;;;;;;0.77;0.30;;;7.00;99.90;;;;;;6320744;22;20087;-89
2022/03/14 05:17:42;;;;;;;0.57;0.25;;;7.00;99.90;;;;;;6348314;22;20018;-88
2022/03/14 05:20:11;;;;;;;0.57;0.20;;;7.00;99.90;;;;;;6348875;22;20024;-88
2022/03/14 05:22:45;;;;;;;0.43;0.30;;;7.00;99.90;;;;;;6320900;22;20013;-89
2022/03/14 05:25:12;;;;;;;0.70;0.25;;;7.00;99.90;;;;;;6321452;22;20055;-89
2022/03/14 05:27:39;;;;;;;0.57;0.20;;;7.10;99.90;;;;;;6351041;22;20001;-88
2022/03/14 05:30:08;;;;;;;0.88;0.30;;;7.00;99.90;;;;;;6325293;22;20006;-89
2022/03/14 05:32:36;;;;;;;0.45;0.20;;;7.00;99.90;;;;;;6349492;22;19999;-89
2022/03/14 05:35:04;;;;;;;0.28;0.13;;;7.00;99.90;;;;;;6325165;22;20141;-87
2022/03/14 05:37:29;;;;;;;0.30;0.17;;;6.90;99.90;;;;;;6353980;22;20013;-89
2022/03/14 05:39:58;;;;;;;0.85;0.30;;;6.90;99.90;;;;;;6323917;22;20030;-89
2022/03/14 05:42:25;;;;;;;0.43;0.17;;;6.90;99.90;;;;;;6349110;22;19999;-89
2022/03/14 05:44:51;;;;;;;0.50;0.20;;;6.90;99.90;;;;;;6320275;22;20384;-89
2022/03/14 05:47:17;;;;;;;0.20;0.10;;;6.90;99.90;;;;;;6321616;22;20613;-89
2022/03/14 05:49:42;;;;;;;0.32;0.30;;;6.90;99.90;;;;;;6321010;22;19999;-88
2022/03/14 05:52:13;;;;;;;0.63;0.22;;;6.80;99.90;;;;;;6348759;22;20014;-89
2022/03/14 05:54:38;;;;;;;0.57;0.20;;;6.90;99.90;;;;;;6321075;22;20086;-90
2022/03/14 05:57:08;;;;;;;0.20;0.10;;;6.90;99.90;;;;;;6349455;22;19995;-89
2022/03/14 05:59:34;;;;;;;0.28;0.10;;;7.00;99.90;;;;;;6321431;22;20385;-90
2022/03/14 06:01:59;;;;;;;0.60;0.20;;;6.90;99.90;;;;;;6347844;22;20022;-90
2022/03/14 06:04:26;;;;;;;0.28;0.10;;;6.90;99.90;;;;;;6319362;22;20006;-89
2022/03/14 06:06:52;;;;;;;0.30;0.10;;;6.90;99.90;;;;;;6317793;22;20002;-89
2022/03/14 06:09:25;;;;;;;0.15;0.10;;;6.90;99.90;;;;;;6315393;22;20003;-88
2022/03/14 06:11:51;;;;;;;0.28;0.10;;;6.90;99.90;;;;;;6311408;22;20147;-89
2022/03/14 06:14:18;;;;;;;0.52;0.20;;;6.80;99.90;;;;;;6303426;22;20006;-90
2022/03/14 06:16:44;;;;;;;0.40;0.20;;;6.80;99.90;;;;;;6337197;22;20003;-89
2022/03/14 06:19:12;;;;;;;0.32;0.20;;;6.80;99.90;;;;;;6338598;22;20121;-89
2022/03/14 06:25:14;;;;;;;0.63;0.20;;;6.70;99.90;;;;;;6313074;22;20010;-91
2022/03/14 06:35:23;;;;;;;;;;;;;;;;;;;;;
2022/03/14 06:54:21;;;;;;;0.30;0.20;;;6.80;99.90;;;;;;6199370;22;20012;-90
2022/03/14 07:00:11;;;;;;;1.17;0.20;;;6.90;99.90;;;;;;6349175;22;20018;-87
2022/03/14 07:09:31;;;;;;;0.80;0.20;;;7.10;99.90;;;;;;6321710;22;20007;-89
2022/03/14 07:12:00;;;;;;;0.80;0.20;;;7.30;99.90;;;;;;6295389;22;19996;-88
2022/03/14 07:14:29;;;;;;;1.67;0.10;;;7.40;99.90;;;;;;6325566;22;20332;-89
2022/03/14 07:16:57;;;;;;;0.17;0.05;;;7.40;99.90;;;;;;6360001;22;20037;-89
2022/03/14 07:19:26;;;;;;;1.27;0.15;;;7.50;99.90;;;;;;6359688;22;19998;-90
2022/03/14 07:21:55;;;;;;;0.38;0.10;;;7.50;99.90;;;;;;6360498;22;20010;-90
2022/03/14 07:24:24;;;;;;;0.43;0.20;;;7.50;99.90;;;;;;6358349;22;19995;-87
2022/03/14 07:26:53;;;;;;;0.10;0.10;;;7.60;99.90;;;;;;6361348;22;20006;-89
2022/03/14 07:29:22;;;;;;;0.40;0.20;;;7.70;99.90;;;;;;6360697;22;20005;-89
2022/03/14 07:31:59;;;;;;;0.80;0.20;;;7.70;99.90;;;;;;6360735;22;19999;-89
2022/03/14 07:34:30;;;;;;;0.22;0.10;;;7.80;99.90;;;;;;6360540;22;20006;-90
2022/03/14 07:37:00;;;;;;;0.30;0.10;;;7.90;99.90;;;;;;6361828;22;19983;-90
2022/03/14 07:39:29;;;;;;;0.77;0.20;;;7.90;99.90;;;;;;6362022;22;19998;-89
2022/03/14 07:42:01;;;;;;;0.40;0.17;;;8.10;99.90;;;;;;6362931;22;20009;-89
2022/03/14 07:44:27;;;;;;;;;;;8.10;99.90;;;;;;6362472;22;20025;-91
2022/03/14 07:46:54;;;;;;;0.40;0.10;;;8.20;99.90;;;;;;6359619;22;19902;-89
2022/03/14 07:49:22;;;;;;;1.00;0.57;;;8.30;99.90;;;;;;6388907;22;19994;-89
2022/03/14 07:51:51;;;;;;;1.75;0.20;;;8.30;99.90;;;;;;6389033;22;20078;-87
2022/03/14 07:54:20;;;;;;;0.75;0.30;;;8.20;99.90;;;;;;6362280;22;19991;-90
2022/03/14 07:56:49;;;;;;;0.32;0.10;;;8.30;99.90;;;;;;6362928;22;20007;-90
2022/03/14 07:59:17;;;;;;;0.40;0.05;;;8.30;99.90;;;;;;6390746;22;20068;-90
2022/03/14 08:01:46;;;;;;;0.10;0.10;;;8.30;99.90;;;;;;6361547;22;20024;-89
2022/03/14 08:04:12;;;;;;;0.20;0.10;;;8.40;99.90;;;;;;6356357;22;20421;-89
2022/03/14 08:06:42;;;;;;;0.43;0.10;;;8.50;99.90;;;;;;6390166;22;19986;-90
2022/03/14 08:09:11;;;;;;;0.43;0.20;;;8.70;99.90;;;;;;6364000;22;19985;-89
2022/03/14 08:11:38;;;;;;;0.20;0.10;;;8.90;99.90;;;;;;6390236;22;19999;-90
2022/03/14 08:14:05;;;;;;;1.48;0.13;;;8.90;99.90;;;;;;6389335;22;20002;-91
2022/03/14 08:16:31;;;;;;;2.00;0.65;;;9.00;99.90;;;;;;6360923;22;19998;-88
2022/03/14 08:18:58;;;;;;;0.20;0.10;;;9.00;99.90;;;;;;6388802;22;19999;-90
2022/03/14 08:21:24;;;;;;;0.30;0.10;;;9.10;99.90;;;;;;6361358;22;20002;-89
2022/03/14 08:23:56;;;;;;;4.30;0.50;;;9.10;99.90;;;;;;6361183;22;20062;-90
2022/03/14 08:26:25;;;;;;;0.93;0.17;;;9.10;99.90;;;;;;6361303;22;20049;-89
2022/03/14 08:28:51;;;;;;;0.95;0.20;;;9.00;99.90;;;;;;6357363;22;19994;-90
2022/03/14 08:31:22;;;;;;;0.10;0.10;;;8.70;99.90;;;;;;6359057;22;19995;-89
2022/03/14 08:33:55;;;;;;;1.55;0.05;;;8.60;99.90;;;;;;6358663;22;19994;-89
2022/03/14 08:36:27;;;;;;;1.02;0.32;;;8.70;99.90;;;;;;6358152;22;19999;-90
2022/03/14 08:39:15;;;;;;;0.28;0.00;;;8.80;99.90;;;;;;6360101;22;20002;-90
2022/03/14 08:41:43;;;;;;;1.08;0.20;;;8.90;99.90;;;;;;6387973;22;20006;-90
2022/03/14 08:44:17;;;;;;;0.20;0.10;;;9.30;99.90;;;;;;6359832;22;20014;-90
2022/03/14 08:46:44;;;;;;;0.17;0.05;;;9.50;99.90;;;;;;6359773;22;20028;-90
2022/03/14 08:49:40;;;;;;;0.47;0.10;;;9.50;99.90;;;;;;6388560;22;20042;-89
2022/03/14 08:52:09;;;;;;;0.10;0.08;;;9.40;99.90;;;;;;6359927;22;20014;-90
2022/03/14 08:54:37;;;;;;;1.17;0.17;;;9.20;99.90;;;;;;6361681;22;20017;-90
2022/03/14 08:58:27;;;;;;;;;;;;;;;;;;;;;
2022/03/14 13:02:17;;;;;;;;;;;;;;;;;;;;;
2022/03/14 15:13:31;;;;;;;1.00;0.20;;;17.60;71.00;;;;;;6221327;23;20024;-90
2022/03/14 15:16:52;;;;;;;0.68;0.13;;;17.50;71.30;;;;;;6225676;23;20035;-90
2022/03/14 15:19:54;;;;;;;0.30;0.10;;;17.40;71.30;;;;;;6231495;22;20050;-88
2022/03/14 15:22:44;;;;;;;5.82;1.08;;;17.30;71.20;;;;;;6307394;22;19995;-88
2022/03/14 15:29:11;;;;;;;1.38;0.30;;;17.50;70.80;;;;;;6270298;22;20000;-88
2022/03/14 15:35:39;;;;;;;1.65;0.20;;;17.00;71.90;;;;;;6209285;23;20001;-87
2022/03/14 15:38:36;;;;;;;;;;;;;;;;;;;;;
2022/03/14 15:41:19;;;;;;;1.27;0.40;;;15.70;74.90;;;;;;6242723;23;20455;-88
2022/03/14 15:43:53;;;;;;;2.88;0.30;;;15.30;76.10;;;;;;6282269;22;20010;-87
2022/03/14 15:46:33;;;;;;;0.75;0.20;;;14.70;77.70;;;;;;6281416;22;20007;-88
2022/03/14 15:49:31;;;;;;;1.33;0.38;;;14.40;78.30;;;;;;6274130;22;20003;-87
2022/03/14 15:52:19;;;;;;;0.30;0.10;;;14.00;79.10;;;;;;6271889;22;20000;-88
2022/03/14 15:54:49;;;;;;;1.00;0.28;;;13.70;80.50;;;;;;6276942;22;20381;-87
2022/03/14 15:57:34;;;;;;;1.17;0.13;;;13.60;80.30;;;;;;6277571;22;20003;-86
2022/03/14 16:00:28;;;;;;;1.60;0.38;;;13.40;80.90;;;;;;6276812;22;20003;-88
2022/03/14 16:03:03;;;;;;;0.65;0.20;;;13.30;81.30;;;;;;6275985;22;20486;-88
2022/03/14 16:05:54;;;;;;;1.08;0.25;;;13.20;81.70;;;;;;6274009;22;20086;-88
2022/03/14 16:11:44;;;;;;;3.22;0.30;;;13.00;82.70;;;;;;6259535;22;20302;-88
2022/03/14 16:14:36;;;;;;;1.52;0.40;;;12.90;83.10;;;;;;6276192;22;20086;-87
2022/03/14 16:32:09;;;;;;;;;;;;;;;;;;;;;
2022/03/14 17:03:20;;;;;;;;;;;;;;;;;;;;;
2022/03/14 17:06:32;;;;;;;;;;;;;;;;;;;;;
2022/03/14 17:13:07;;;;;;;0.95;0.20;;;11.50;88.90;;;;;;6321496;22;20007;-89
2022/03/14 17:30:44;;;;;;;1.05;0.30;;;10.90;90.60;;;;;;6124805;23;20006;-88
2022/03/14 17:40:21;;;;;;;1.00;0.28;;;10.80;91.30;;;;;;6243184;22;20080;-86
2022/03/14 17:43:10;;;;;;;;;;;;;;;;;;;;;
2022/03/14 17:46:05;;;;;;;2.20;0.40;;;10.40;92.30;;;;;;6380154;22;20041;-87
2022/03/14 17:48:48;;;;;;;1.58;0.35;;;10.40;92.30;;;;;;6352686;22;20101;-87
2022/03/14 17:51:29;;;;;;;0.75;0.25;;;10.30;92.40;;;;;;6325509;22;20059;-88
2022/03/14 17:54:09;;;;;;;1.35;0.20;;;10.30;92.60;;;;;;6323926;22;20046;-89
2022/03/14 17:57:11;;;;;;;0.50;0.20;;;10.30;92.80;;;;;;6327328;22;20028;-89
2022/03/14 18:12:43;;;;;;;0.73;0.20;;;9.90;94.10;;;;;;6379477;22;20446;-88
2022/03/14 18:19:09;;;;;;;1.75;0.30;;;9.80;94.60;;;;;;6383471;22;20605;-89
2022/03/14 18:25:43;;;;;;;;;;;;;;;;;;;;;
2022/03/14 18:36:27;;;;;;;0.63;0.20;;;9.60;95.50;;;;;;6228225;23;20072;-88
2022/03/14 19:15:37;;;;;;;4.70;0.47;;;9.00;98.00;;;;;;6373580;22;20021;-86
2022/03/14 19:21:58;;;;;;;3.28;0.45;;;9.00;98.40;;;;;;6376958;22;20039;-88
2022/03/14 19:27:45;;;;;;;1.90;0.40;;;9.00;98.70;;;;;;6373882;22;20014;-87
2022/03/14 19:30:29;;;;;;;1.90;0.30;;;9.00;98.90;;;;;;6326924;22;20019;-86
2022/03/14 19:33:08;;;;;;;3.20;0.45;;;9.00;98.90;;;;;;6318245;22;20062;-85
2022/03/14 19:35:44;;;;;;;2.38;0.40;;;8.90;99.10;;;;;;6319150;22;20022;-87
2022/03/14 19:38:20;;;;;;;1.92;0.60;;;8.90;99.30;;;;;;6319177;22;20022;-88
2022/03/14 19:40:49;;;;;;;2.50;0.50;;;8.90;99.50;;;;;;6318833;22;20067;-86
2022/03/14 19:50:17;;;;;;;1.75;0.35;;;8.80;99.70;;;;;;6294722;22;20424;-86
2022/03/14 19:56:27;;;;;;;5.68;1.15;;;8.70;99.90;;;;;;6275189;22;20085;-86
2022/03/14 19:59:32;;;;;;;;;;;;;;;;;;;;;
2022/03/14 20:09:54;;;;;;;2.53;0.70;;;8.60;99.90;;;;;;6137223;23;20005;-85
2022/03/14 20:14:02;;;;;;;1.98;0.50;;;8.50;99.90;;;;;;6132490;23;20058;-86
2022/03/14 20:24:27;;;;;;;;;;;;;;;;;;;;;
2022/03/14 20:33:34;;;;;;;2.33;0.80;;;8.30;99.90;;;;;;6372372;22;20018;-85
2022/03/14 20:36:22;;;;;;;1.40;0.50;;;8.30;99.90;;;;;;6314312;22;20006;-87
2022/03/14 20:39:36;;;;;;;3.05;0.60;;;8.20;99.90;;;;;;6348128;22;20024;-86
2022/03/14 20:42:50;;;;;;;1.80;0.50;;;8.30;99.90;;;;;;6352208;22;20002;-85
2022/03/14 20:46:02;;;;;;;2.00;0.60;;;8.20;99.90;;;;;;6321255;22;20002;-86
2022/03/14 20:49:15;;;;;;;2.15;0.63;;;8.20;99.90;;;;;;6280712;22;20017;-86
2022/03/14 21:03:15;;;;;;;4.03;0.90;;;8.10;99.90;;;;;;6342789;22;20356;-85
2022/03/14 21:05:46;;;;;;;3.85;0.63;;;8.00;99.90;;;;;;6306216;22;20023;-87
2022/03/14 21:08:30;;;;;;;4.32;0.70;;;8.00;99.90;;;;;;6327102;22;20026;-88
2022/03/14 21:11:15;;;;;;;1.83;0.65;;;8.00;99.90;;;;;;6326656;22;20002;-87
2022/03/14 21:13:49;;;;;;;1.52;0.63;;;7.90;99.90;;;;;;6353333;22;20019;-86
2022/03/14 21:16:25;;;;;;;4.10;0.90;;;7.90;99.90;;;;;;6325262;22;20003;-87
2022/03/14 21:18:56;;;;;;;1.42;0.57;;;7.80;99.90;;;;;;6351879;22;19995;-86
2022/03/14 21:21:44;;;;;;;1.85;0.57;;;7.80;99.90;;;;;;6319142;22;19999;-87
2022/03/14 21:24:29;;;;;;;1.45;0.50;;;7.80;99.90;;;;;;6350891;22;20437;-86
2022/03/14 21:27:05;;;;;;;2.47;0.60;;;7.70;99.90;;;;;;6323590;22;20002;-85
2022/03/14 21:29:32;;;;;;;1.45;0.70;;;7.80;99.90;;;;;;6323499;22;20007;-86
2022/03/14 21:32:04;;;;;;;2.00;0.45;;;7.70;99.90;;;;;;6321918;22;20010;-87
2022/03/14 21:34:53;;;;;;;;;;;7.70;99.90;;;;;;6323137;22;20006;-86
2022/03/14 21:37:27;;;;;;;1.92;0.50;;;7.70;99.90;;;;;;6318185;22;19989;-87
2022/03/14 21:40:02;;;;;;;2.35;0.90;;;7.70;99.90;;;;;;6319676;22;20086;-86
2022/03/14 21:42:28;;;;;;;2.47;1.17;;;7.70;99.90;;;;;;6324377;22;20048;-87
2022/03/14 21:44:57;;;;;;;4.68;1.40;;;7.70;99.90;;;;;;6326678;22;20010;-86
2022/03/14 21:47:45;;;;;;;3.67;1.25;;;7.70;99.90;;;;;;6328443;22;20007;-87
2022/03/14 21:50:17;;;;;;;2.67;1.00;;;7.60;99.90;;;;;;6314071;22;20102;-89
2022/03/14 21:52:44;;;;;;;3.60;1.15;;;7.70;99.90;;;;;;6310261;22;20177;-90
2022/03/14 21:55:11;;;;;;;2.30;0.70;;;7.60;99.90;;;;;;6308654;22;20375;-89
2022/03/14 21:57:42;;;;;;;3.97;1.17;;;7.60;99.90;;;;;;6309178;22;19998;-90
2022/03/14 22:00:11;;;;;;;4.03;0.70;;;7.60;99.90;;;;;;6298639;22;20621;-89
2022/03/14 22:02:52;;;;;;;3.00;0.55;;;7.70;99.90;;;;;;6278662;22;20079;-89
2022/03/14 22:05:22;;;;;;;4.07;0.85;;;7.80;99.90;;;;;;6279281;22;20006;-89
2022/03/14 22:07:52;;;;;;;1.63;0.50;;;7.70;99.90;;;;;;6279414;22;19996;-89
2022/03/14 22:10:18;;;;;;;1.77;0.45;;;7.70;99.90;;;;;;6305941;22;19999;-88
2022/03/14 22:12:44;;;;;;;2.00;0.55;;;7.60;99.90;;;;;;6279137;22;20011;-89
2022/03/14 22:15:10;;;;;;;3.00;0.80;;;7.60;99.90;;;;;;6279198;22;20455;-90
2022/03/14 22:17:37;;;;;;;2.97;0.65;;;7.60;99.90;;;;;;6279460;22;20480;-90
2022/03/14 22:20:08;;;;;;;1.58;0.70;;;7.60;99.90;;;;;;6276523;22;20085;-89
2022/03/14 22:22:47;;;;;;;3.03;0.70;;;7.60;99.90;;;;;;6279072;22;20003;-89
2022/03/14 22:25:13;;;;;;;1.83;0.60;;;7.60;99.90;;;;;;6279215;22;20452;-90
2022/03/14 22:27:39;;;;;;;2.03;0.70;;;7.60;99.90;;;;;;6279168;22;19999;-89
2022/03/14 22:30:06;;;;;;;2.58;0.80;;;7.60;99.90;;;;;;6279209;22;20004;-89
2022/03/14 22:32:34;;;;;;;1.73;0.68;;;7.50;99.90;;;;;;6279219;22;20029;-89
2022/03/14 22:34:59;;;;;;;5.18;1.10;;;7.60;99.90;;;;;;6279209;22;20010;-88
2022/03/14 22:37:26;;;;;;;5.85;0.95;;;7.50;99.90;;;;;;6277832;22;20086;-89
2022/03/14 22:39:53;;;;;;;2.05;0.70;;;7.60;99.90;;;;;;6277852;22;20034;-89
2022/03/14 22:42:19;;;;;;;4.47;1.38;;;7.40;99.90;;;;;;6278183;22;20007;-88
2022/03/14 22:44:45;;;;;;;1.42;0.50;;;7.60;99.90;;;;;;6305296;22;20335;-89
2022/03/14 22:47:11;;;;;;;2.08;0.75;;;7.60;99.90;;;;;;6306474;22;20061;-89
2022/03/14 22:49:37;;;;;;;5.10;0.90;;;7.60;99.90;;;;;;6278127;22;20513;-89
2022/03/14 22:52:04;;;;;;;2.05;0.65;;;7.60;99.90;;;;;;6278301;22;20064;-90
2022/03/14 22:54:30;;;;;;;5.28;0.90;;;7.60;99.90;;;;;;6277651;22;20379;-89
2022/03/14 22:56:57;;;;;;;2.35;0.82;;;7.60;99.90;;;;;;6277899;22;20041;-89
2022/03/14 22:59:23;;;;;;;1.48;0.60;;;7.70;99.90;;;;;;6277968;22;20014;-89
2022/03/14 23:01:48;;;;;;;1.70;0.63;;;7.60;99.90;;;;;;6278481;22;20003;-87
2022/03/14 23:08:21;;;;;;;3.05;1.00;;;7.60;99.90;;;;;;6305522;22;20083;-88
2022/03/14 23:09:44;;;;;;;3.35;1.27;;;7.60;99.90;;;;;;6305419;22;20325;-88
2022/03/14 23:12:10;;;;;;;2.75;0.80;;;7.60;99.90;;;;;;6277941;22;20003;-89
2022/03/14 23:14:36;;;;;;;5.15;1.10;;;7.60;99.90;;;;;;6305600;22;20010;-88
2022/03/14 23:17:03;;;;;;;3.20;1.00;;;7.60;99.90;;;;;;6277395;22;20034;-89
2022/03/14 23:19:29;;;;;;;2.60;0.77;;;7.70;99.90;;;;;;6277197;22;20003;-89
2022/03/14 23:21:54;;;;;;;2.53;0.77;;;7.70;99.90;;;;;;6307663;22;20006;-90
2022/03/14 23:24:24;;;;;;;2.80;0.63;;;7.60;99.90;;;;;;6305820;22;20010;-89
2022/03/14 23:26:51;;;;;;;2.08;0.77;;;7.70;99.90;;;;;;6278606;22;20007;-89
2022/03/14 23:29:21;;;;;;;1.75;0.75;;;7.70;99.90;;;;;;6304942;22;20049;-89
2022/03/14 23:31:48;;;;;;;1.58;0.68;;;7.70;99.90;;;;;;6277959;22;20009;-89
2022/03/14 23:34:14;;;;;;;2.22;0.85;;;7.60;99.90;;;;;;6277126;22;20082;-89
2022/03/14 23:36:40;;;;;;;2.00;0.70;;;7.70;99.90;;;;;;6277140;22;20483;-88
2022/03/14 23:39:07;;;;;;;1.88;0.77;;;7.70;99.90;;;;;;6305450;22;20004;-89